Time;durP1;ratioP1;P1;durP2;ratioP2;P2;SDS_P1;SDS_P2;PMS_P1;PMS_P2;Temp;Humidity;BMP_temperature;BMP_pressure;BME280_temperature;BME280_humidity;BME280_pressure;Samples;Min_cycle;Max_cycle;Signal;HPM_P1;HPM_P2
2023/11/11 00:02:09;;;;;;;106.25;96.78;;;7.80;99.90;;;;;;5020737;28;20680;-80
2023/11/11 00:04:34;;;;;;;96.15;87.43;;;7.80;99.90;;;;;;5022645;28;20187;-80
2023/11/11 00:07:00;;;;;;;96.63;87.93;;;7.80;99.90;;;;;;5020535;28;20212;-80
2023/11/11 00:09:27;;;;;;;96.63;87.83;;;7.90;99.90;;;;;;5020823;28;20529;-80
2023/11/11 00:11:55;;;;;;;100.07;90.93;;;7.90;99.90;;;;;;5020280;28;20522;-80
2023/11/11 00:14:21;;;;;;;108.15;98.55;;;8.00;99.90;;;;;;5020403;28;20193;-79
2023/11/11 00:16:46;;;;;;;98.20;89.40;;;7.90;99.90;;;;;;5022084;28;20174;-79
2023/11/11 00:19:16;;;;;;;101.40;92.40;;;8.00;99.90;;;;;;5021103;28;20194;-79
2023/11/11 00:21:44;;;;;;;103.00;93.93;;;7.90;99.90;;;;;;5019664;28;20186;-79
2023/11/11 00:24:10;;;;;;;102.45;93.45;;;8.00;99.90;;;;;;5020092;28;20265;-79
2023/11/11 00:26:37;;;;;;;96.00;87.28;;;8.00;99.90;;;;;;5019987;28;20537;-80
2023/11/11 00:29:05;;;;;;;91.13;82.35;;;8.00;99.90;;;;;;5019486;28;20194;-80
2023/11/11 00:31:34;;;;;;;91.75;83.15;;;8.00;99.90;;;;;;5023491;28;20247;-80
2023/11/11 00:34:01;;;;;;;109.90;100.55;;;8.00;99.90;;;;;;5025729;28;20678;-80
2023/11/11 00:36:30;;;;;;;109.35;99.82;;;8.00;99.90;;;;;;5025409;28;20197;-79
2023/11/11 00:38:55;;;;;;;106.07;96.88;;;8.00;99.90;;;;;;5026205;28;20162;-80
2023/11/11 00:41:21;;;;;;;112.13;102.20;;;8.00;99.90;;;;;;5026492;28;20178;-80
2023/11/11 00:43:47;;;;;;;107.50;97.80;;;8.00;99.90;;;;;;5025039;28;20198;-80
2023/11/11 00:46:17;;;;;;;147.03;135.80;;;8.00;99.90;;;;;;5024840;28;20171;-81
2023/11/11 00:48:43;;;;;;;126.00;115.50;;;7.90;99.90;;;;;;5025108;28;20487;-80
2023/11/11 00:51:09;;;;;;;130.60;119.73;;;8.00;99.90;;;;;;5024002;28;20166;-81
2023/11/11 00:53:35;;;;;;;117.00;106.83;;;8.00;99.90;;;;;;5027206;28;20795;-81
2023/11/11 00:56:00;;;;;;;112.50;102.93;;;8.00;99.90;;;;;;5027447;28;20189;-81
2023/11/11 00:58:26;;;;;;;132.90;121.97;;;7.90;99.90;;;;;;5027257;28;20405;-81
2023/11/11 01:00:52;;;;;;;110.77;100.67;;;7.90;99.90;;;;;;5027381;28;20163;-81
2023/11/11 01:03:17;;;;;;;127.27;116.93;;;7.90;99.90;;;;;;5027231;28;20198;-81
2023/11/11 01:05:43;;;;;;;116.57;106.13;;;7.90;99.90;;;;;;5027594;28;20186;-81
2023/11/11 01:08:09;;;;;;;137.37;125.80;;;7.90;99.90;;;;;;5027189;28;20198;-81
2023/11/11 01:10:37;;;;;;;129.48;118.82;;;7.90;99.90;;;;;;5028180;28;20186;-81
2023/11/11 01:13:04;;;;;;;130.90;120.13;;;7.90;99.90;;;;;;5028557;28;20182;-81
2023/11/11 01:15:30;;;;;;;115.75;105.60;;;7.90;99.90;;;;;;5028542;28;20174;-81
2023/11/11 01:17:55;;;;;;;117.38;107.03;;;7.90;99.90;;;;;;5028529;28;20170;-81
2023/11/11 01:20:21;;;;;;;129.57;118.80;;;7.90;99.90;;;;;;5027567;28;20170;-81
2023/11/11 01:22:47;;;;;;;141.33;130.33;;;7.90;99.90;;;;;;5028947;28;20254;-81
2023/11/11 01:25:13;;;;;;;134.10;123.27;;;8.00;99.90;;;;;;5028329;28;20167;-81
2023/11/11 01:27:39;;;;;;;131.37;120.77;;;8.00;99.90;;;;;;5028698;28;20166;-81
2023/11/11 01:30:06;;;;;;;124.68;114.20;;;8.00;99.90;;;;;;5029036;28;20167;-81
2023/11/11 01:32:33;;;;;;;138.38;127.13;;;8.00;99.90;;;;;;5028167;28;20174;-81
2023/11/11 01:34:58;;;;;;;133.05;121.68;;;8.00;99.90;;;;;;5028105;28;20183;-81
2023/11/11 01:37:24;;;;;;;195.63;182.30;;;8.00;99.90;;;;;;5028336;28;20301;-81
2023/11/11 01:39:50;;;;;;;111.97;101.37;;;8.00;99.90;;;;;;5027090;28;20171;-81
2023/11/11 01:42:15;;;;;;;140.43;128.73;;;8.00;99.90;;;;;;5021655;28;20202;-81
2023/11/11 01:44:41;;;;;;;131.47;120.30;;;8.10;99.90;;;;;;5018196;28;20545;-81
2023/11/11 01:47:07;;;;;;;133.07;121.77;;;8.00;99.90;;;;;;5018541;28;20213;-81
2023/11/11 01:49:34;;;;;;;145.80;133.82;;;8.00;99.90;;;;;;5018525;28;20167;-81
2023/11/11 01:52:01;;;;;;;130.55;119.20;;;8.00;99.90;;;;;;5019231;28;20666;-81
2023/11/11 01:54:31;;;;;;;147.35;135.07;;;8.00;99.90;;;;;;5017403;28;20660;-81
2023/11/11 01:56:59;;;;;;;130.38;119.55;;;8.10;99.90;;;;;;5018507;28;20170;-81
2023/11/11 01:59:39;;;;;;;;;;;;;;;;;;;;;
2023/11/11 02:02:05;;;;;;;128.65;117.72;;;8.10;99.90;;;;;;5018548;28;20182;-81
2023/11/11 02:04:31;;;;;;;143.00;130.98;;;8.10;99.90;;;;;;5018748;28;20234;-81
2023/11/11 02:06:57;;;;;;;112.17;101.93;;;8.00;99.90;;;;;;5022294;28;20193;-81
2023/11/11 02:09:28;;;;;;;124.17;113.37;;;8.00;99.90;;;;;;5024155;28;20481;-81
2023/11/11 02:11:57;;;;;;;120.53;110.22;;;8.00;99.90;;;;;;5027240;28;20154;-81
2023/11/11 02:14:26;;;;;;;130.38;119.57;;;8.00;99.90;;;;;;5028415;28;20182;-82
2023/11/11 02:16:51;;;;;;;117.20;107.15;;;8.00;99.90;;;;;;5027793;28;20177;-82
2023/11/11 02:19:20;;;;;;;129.67;118.77;;;8.00;99.90;;;;;;5026091;28;20175;-81
2023/11/11 02:21:49;;;;;;;125.07;114.32;;;8.00;99.90;;;;;;5027767;28;20265;-82
2023/11/11 02:24:33;;;;;;;132.75;121.10;;;7.90;99.90;;;;;;5025646;28;20206;-81
2023/11/11 02:26:59;;;;;;;127.95;117.40;;;8.00;99.90;;;;;;5026806;28;20174;-81
2023/11/11 02:29:26;;;;;;;133.13;121.77;;;7.90;99.90;;;;;;5028042;28;20167;-82
2023/11/11 02:31:52;;;;;;;122.32;111.32;;;8.00;99.90;;;;;;5027912;28;20197;-82
2023/11/11 02:34:21;;;;;;;118.33;107.67;;;8.00;99.90;;;;;;5028170;28;20183;-82
2023/11/11 02:36:49;;;;;;;142.30;131.02;;;7.90;99.90;;;;;;5026989;28;20405;-82
2023/11/11 02:39:17;;;;;;;118.95;108.13;;;7.90;99.90;;;;;;5027588;28;20201;-82
2023/11/11 02:41:43;;;;;;;139.40;127.90;;;8.00;99.90;;;;;;5027593;28;20190;-82
2023/11/11 02:44:12;;;;;;;108.78;98.72;;;8.00;99.90;;;;;;5026329;28;20209;-82
2023/11/11 02:46:39;;;;;;;171.82;158.63;;;8.00;99.90;;;;;;5027987;28;20201;-82
2023/11/11 02:49:05;;;;;;;167.38;153.60;;;8.00;99.90;;;;;;5027695;28;20158;-82
2023/11/11 02:51:58;;;;;;;155.90;143.33;;;8.00;99.90;;;;;;5028915;28;20190;-82
2023/11/11 02:54:29;;;;;;;133.70;122.32;;;8.00;99.90;;;;;;5027270;28;20284;-82
2023/11/11 02:56:58;;;;;;;146.77;134.38;;;8.00;99.90;;;;;;5028794;28;20174;-82
2023/11/11 02:59:26;;;;;;;180.20;166.73;;;8.10;99.90;;;;;;5028366;28;20174;-82
2023/11/11 03:01:52;;;;;;;155.32;143.35;;;8.10;99.90;;;;;;5028925;28;20190;-82
2023/11/11 03:04:18;;;;;;;150.00;137.13;;;8.00;99.90;;;;;;5027763;28;20266;-82
2023/11/11 03:06:43;;;;;;;140.73;129.27;;;8.00;99.90;;;;;;5025884;28;20166;-81
2023/11/11 03:09:19;;;;;;;137.63;126.13;;;8.00;99.90;;;;;;5027332;28;20163;-82
2023/11/11 03:11:50;;;;;;;116.72;106.07;;;8.10;99.90;;;;;;5026655;28;20616;-82
2023/11/11 03:14:26;;;;;;;139.00;127.47;;;8.10;99.90;;;;;;5025123;28;20249;-82
2023/11/11 03:16:55;;;;;;;127.00;115.35;;;8.00;99.90;;;;;;5025366;28;20190;-82
2023/11/11 03:19:24;;;;;;;124.30;113.22;;;8.00;99.90;;;;;;5026128;28;20167;-82
2023/11/11 03:21:49;;;;;;;124.00;113.07;;;8.00;99.90;;;;;;5024051;28;20197;-82
2023/11/11 03:24:15;;;;;;;130.97;120.17;;;7.90;99.90;;;;;;5026009;28;20242;-82
2023/11/11 03:26:41;;;;;;;120.90;110.37;;;7.90;99.90;;;;;;5025440;28;20163;-81
2023/11/11 03:29:06;;;;;;;123.17;112.70;;;7.90;99.90;;;;;;5024583;28;20174;-81
2023/11/11 03:31:32;;;;;;;125.30;114.63;;;7.90;99.90;;;;;;5024622;28;20181;-81
2023/11/11 03:34:08;;;;;;;135.37;124.27;;;7.90;99.90;;;;;;5021876;28;20221;-81
2023/11/11 03:36:36;;;;;;;123.47;113.20;;;7.90;99.90;;;;;;5024527;28;20177;-81
2023/11/11 03:39:02;;;;;;;118.45;107.65;;;7.90;99.90;;;;;;5022253;28;20162;-81
2023/11/11 03:41:28;;;;;;;126.13;115.33;;;8.00;99.90;;;;;;5021565;28;20166;-81
2023/11/11 03:43:54;;;;;;;123.73;113.53;;;7.90;99.90;;;;;;5021286;28;20507;-81
2023/11/11 03:46:19;;;;;;;112.10;102.17;;;8.00;99.90;;;;;;5023733;28;20178;-81
2023/11/11 03:48:45;;;;;;;133.97;122.93;;;7.90;99.90;;;;;;5023254;28;20650;-82
2023/11/11 03:51:13;;;;;;;110.00;99.93;;;7.90;99.90;;;;;;5022718;28;20789;-81
2023/11/11 03:53:39;;;;;;;140.07;128.63;;;7.90;99.90;;;;;;5022310;28;20202;-81
2023/11/11 03:56:10;;;;;;;115.40;105.87;;;7.90;99.90;;;;;;5024171;28;20166;-80
2023/11/11 03:58:36;;;;;;;108.97;99.38;;;7.90;99.90;;;;;;5023480;28;20182;-81
2023/11/11 04:01:05;;;;;;;115.10;105.23;;;7.90;99.90;;;;;;5020137;28;20244;-81
2023/11/11 04:03:31;;;;;;;112.47;102.22;;;7.80;99.90;;;;;;5021611;28;20214;-81
2023/11/11 04:05:56;;;;;;;90.07;81.23;;;7.80;99.90;;;;;;5028842;28;20721;-81
2023/11/11 04:08:22;;;;;;;114.20;104.40;;;7.80;99.90;;;;;;5030561;28;20222;-81
2023/11/11 04:10:57;;;;;;;109.30;99.23;;;7.80;99.90;;;;;;5029797;28;20166;-81
2023/11/11 04:13:27;;;;;;;112.07;102.15;;;7.80;99.90;;;;;;5028237;28;20614;-81
2023/11/11 04:15:56;;;;;;;109.00;99.00;;;7.70;99.90;;;;;;5028987;28;20170;-82
2023/11/11 04:18:29;;;;;;;116.25;105.55;;;7.70;99.90;;;;;;5031106;28;20176;-82
2023/11/11 04:20:58;;;;;;;109.57;100.03;;;7.70;99.90;;;;;;5031321;28;20155;-82
2023/11/11 04:23:24;;;;;;;117.55;107.32;;;7.70;99.90;;;;;;5031841;28;20194;-80
2023/11/11 04:25:50;;;;;;;116.22;105.72;;;7.70;99.90;;;;;;5031175;28;20166;-81
2023/11/11 04:28:15;;;;;;;112.57;101.70;;;7.70;99.90;;;;;;5030602;28;20177;-82
2023/11/11 04:30:42;;;;;;;96.23;87.40;;;7.70;99.90;;;;;;5032716;28;20429;-82
2023/11/11 04:33:17;;;;;;;115.63;105.53;;;7.70;99.90;;;;;;5029815;28;20273;-82
2023/11/11 04:35:43;;;;;;;109.50;100.13;;;7.60;99.90;;;;;;5032125;28;20157;-80
2023/11/11 04:38:09;;;;;;;123.78;113.30;;;7.70;99.90;;;;;;5028362;28;20194;-80
2023/11/11 04:40:44;;;;;;;110.13;100.63;;;7.70;99.90;;;;;;5027034;28;20173;-80
2023/11/11 04:43:12;;;;;;;104.25;94.50;;;7.70;99.90;;;;;;5024900;28;20468;-80
2023/11/11 04:45:38;;;;;;;119.30;108.85;;;7.80;99.90;;;;;;5025852;28;20174;-81
2023/11/11 04:48:04;;;;;;;108.30;98.43;;;7.80;99.90;;;;;;5024842;28;20173;-80
2023/11/11 04:50:33;;;;;;;108.27;98.57;;;7.80;99.90;;;;;;5026138;28;20163;-81
2023/11/11 04:53:04;;;;;;;127.85;117.60;;;7.80;99.90;;;;;;5026393;28;20475;-80
2023/11/11 04:55:35;;;;;;;87.85;79.18;;;7.80;99.90;;;;;;5026508;28;20150;-81
2023/11/11 04:58:01;;;;;;;95.20;86.38;;;7.70;99.90;;;;;;5025728;28;20193;-81
2023/11/11 05:00:30;;;;;;;121.57;111.47;;;7.70;99.90;;;;;;5026468;28;20170;-80
2023/11/11 05:03:00;;;;;;;112.13;101.57;;;7.70;99.90;;;;;;5024439;28;20212;-81
2023/11/11 05:05:26;;;;;;;95.35;86.57;;;7.70;99.90;;;;;;5025647;28;20158;-80
2023/11/11 05:07:53;;;;;;;97.23;88.30;;;7.70;99.90;;;;;;5026590;28;20177;-80
2023/11/11 05:10:22;;;;;;;108.68;98.53;;;7.70;99.90;;;;;;5027860;28;20554;-81
2023/11/11 05:12:51;;;;;;;101.90;92.72;;;7.70;99.90;;;;;;5026375;28;20628;-80
2023/11/11 05:15:17;;;;;;;107.93;98.47;;;7.70;99.90;;;;;;5024359;28;20252;-81
2023/11/11 05:17:46;;;;;;;98.88;89.82;;;7.80;99.90;;;;;;5020007;28;20221;-80
2023/11/11 05:20:17;;;;;;;97.07;88.22;;;7.80;99.90;;;;;;5020061;28;20186;-81
2023/11/11 05:22:43;;;;;;;101.57;92.30;;;7.70;99.90;;;;;;5023869;28;20537;-81
2023/11/11 05:25:12;;;;;;;127.50;117.00;;;7.70;99.90;;;;;;5023840;28;20186;-81
2023/11/11 05:27:38;;;;;;;109.03;99.72;;;7.70;99.90;;;;;;5022780;28;20171;-81
2023/11/11 05:30:05;;;;;;;83.43;75.37;;;7.70;99.90;;;;;;5025626;28;20163;-80
2023/11/11 05:32:31;;;;;;;102.63;93.47;;;7.70;99.90;;;;;;5025336;28;20804;-81
2023/11/11 05:34:59;;;;;;;147.35;136.25;;;7.70;99.90;;;;;;5021985;28;20198;-80
2023/11/11 05:37:25;;;;;;;91.85;82.93;;;7.60;99.90;;;;;;5021156;28;20230;-80
2023/11/11 05:39:51;;;;;;;134.67;123.87;;;7.60;99.90;;;;;;5021999;28;20190;-80
2023/11/11 05:42:17;;;;;;;118.17;108.10;;;7.60;99.90;;;;;;5021859;28;20454;-81
2023/11/11 05:44:43;;;;;;;110.00;100.30;;;7.70;99.90;;;;;;5021618;28;20536;-81
2023/11/11 05:47:09;;;;;;;112.00;102.00;;;7.70;99.90;;;;;;5022382;28;20405;-81
2023/11/11 05:49:41;;;;;;;126.47;116.13;;;7.60;99.90;;;;;;5023830;28;20398;-81
2023/11/11 05:52:12;;;;;;;96.97;88.13;;;7.60;99.90;;;;;;5022839;28;20186;-81
2023/11/11 05:54:41;;;;;;;104.25;94.45;;;7.60;99.90;;;;;;5024130;28;20195;-82
2023/11/11 05:57:06;;;;;;;100.32;91.03;;;7.60;99.90;;;;;;5024788;28;20167;-81
2023/11/11 05:59:32;;;;;;;100.97;92.00;;;7.60;99.90;;;;;;5024410;28;20197;-82
2023/11/11 06:01:58;;;;;;;110.23;100.53;;;7.60;99.90;;;;;;5023360;28;20273;-81
2023/11/11 06:04:25;;;;;;;90.93;82.10;;;7.70;99.90;;;;;;5024822;28;20712;-81
2023/11/11 06:06:51;;;;;;;84.72;76.32;;;7.60;99.90;;;;;;5021999;28;20173;-81
2023/11/11 06:09:20;;;;;;;87.47;78.82;;;7.60;99.90;;;;;;5022749;28;20193;-81
2023/11/11 06:11:50;;;;;;;110.40;100.45;;;7.60;99.90;;;;;;5023982;28;20167;-81
2023/11/11 06:14:17;;;;;;;121.90;111.75;;;7.50;99.90;;;;;;5024276;28;20245;-81
2023/11/11 06:16:43;;;;;;;136.95;125.72;;;7.50;99.90;;;;;;5023097;28;20194;-81
2023/11/11 06:19:12;;;;;;;111.07;100.65;;;7.50;99.90;;;;;;5022145;28;20525;-81
2023/11/11 06:21:38;;;;;;;86.90;78.30;;;7.50;99.90;;;;;;5023650;28;20188;-82
2023/11/11 06:24:04;;;;;;;105.23;95.50;;;7.50;99.90;;;;;;5024042;28;20182;-82
2023/11/11 06:26:31;;;;;;;113.50;103.00;;;7.50;99.90;;;;;;5023663;28;20408;-81
2023/11/11 06:28:57;;;;;;;121.28;111.07;;;7.40;99.90;;;;;;5023096;28;20221;-82
2023/11/11 06:31:26;;;;;;;96.25;87.07;;;7.40;99.90;;;;;;5024886;28;20182;-82
2023/11/11 06:33:55;;;;;;;104.80;94.90;;;7.40;99.90;;;;;;5024229;28;20242;-82
2023/11/11 06:36:21;;;;;;;121.38;110.65;;;7.40;99.90;;;;;;5023937;28;20193;-82
2023/11/11 06:38:50;;;;;;;123.63;112.87;;;7.40;99.90;;;;;;5022993;28;20163;-81
2023/11/11 06:41:20;;;;;;;109.68;100.07;;;7.40;99.90;;;;;;5023400;28;20408;-81
2023/11/11 06:43:46;;;;;;;102.28;92.65;;;7.40;99.90;;;;;;5024862;28;20232;-81
2023/11/11 06:46:13;;;;;;;90.03;80.68;;;7.40;99.90;;;;;;5024059;28;20174;-82
2023/11/11 06:48:41;;;;;;;116.93;106.80;;;7.40;99.90;;;;;;5026670;28;20162;-82
2023/11/11 06:51:25;;;;;;;89.80;81.07;;;7.40;99.90;;;;;;5025900;28;20171;-82
2023/11/11 06:53:56;;;;;;;91.55;82.20;;;7.40;99.90;;;;;;5025213;28;20246;-82
2023/11/11 06:56:22;;;;;;;75.22;64.45;;;7.40;99.90;;;;;;5025330;28;20150;-82
2023/11/11 06:58:48;;;;;;;91.43;81.90;;;7.40;99.90;;;;;;5023912;28;20182;-81
2023/11/11 07:01:22;;;;;;;81.03;71.20;;;7.30;99.90;;;;;;5025217;28;20167;-82
2023/11/11 07:03:48;;;;;;;74.13;60.58;;;7.30;99.90;;;;;;5022677;28;20249;-81
2023/11/11 07:06:16;;;;;;;78.22;69.30;;;7.20;99.90;;;;;;5024871;28;20651;-81
2023/11/11 07:08:42;;;;;;;107.78;97.07;;;7.30;99.90;;;;;;5025841;28;20186;-81
2023/11/11 07:11:11;;;;;;;99.60;90.37;;;7.20;99.90;;;;;;5026898;28;20173;-81
2023/11/11 07:13:36;;;;;;;76.10;66.53;;;7.30;99.90;;;;;;5025665;28;20190;-82
2023/11/11 07:16:05;;;;;;;88.40;77.87;;;7.40;99.90;;;;;;5025844;28;20173;-81
2023/11/11 07:18:31;;;;;;;83.00;68.95;;;7.30;99.90;;;;;;5024481;28;20167;-81
2023/11/11 07:21:20;;;;;;;77.45;63.70;;;7.40;99.90;;;;;;5024111;28;20229;-81
2023/11/11 07:23:46;;;;;;;76.70;56.75;;;7.40;99.90;;;;;;5021305;28;20296;-81
2023/11/11 07:26:11;;;;;;;75.32;59.30;;;7.40;99.90;;;;;;5024360;28;20170;-82
2023/11/11 07:28:38;;;;;;;67.70;50.77;;;7.40;99.90;;;;;;5025730;28;20201;-81
2023/11/11 07:31:07;;;;;;;71.85;51.17;;;7.40;99.90;;;;;;5026804;28;20417;-81
2023/11/11 07:33:36;;;;;;;72.03;56.97;;;7.50;99.90;;;;;;5026577;28;20183;-81
2023/11/11 07:36:05;;;;;;;78.00;60.72;;;7.40;99.90;;;;;;5025200;28;20190;-81
2023/11/11 07:38:32;;;;;;;75.20;57.50;;;7.50;99.90;;;;;;5024485;28;20197;-81
2023/11/11 07:40:58;;;;;;;72.13;53.72;;;7.40;99.90;;;;;;5024432;28;20654;-81
2023/11/11 07:43:24;;;;;;;71.35;59.28;;;7.40;99.90;;;;;;5023879;28;20210;-81
2023/11/11 07:45:49;;;;;;;74.80;62.40;;;7.40;99.90;;;;;;5024659;28;20195;-81
2023/11/11 07:48:15;;;;;;;73.93;58.43;;;7.40;99.90;;;;;;5024549;28;20647;-81
2023/11/11 07:50:50;;;;;;;68.97;49.77;;;7.40;99.90;;;;;;5024085;28;20683;-81
2023/11/11 07:53:17;;;;;;;81.57;68.63;;;7.50;99.90;;;;;;5024587;28;20244;-81
2023/11/11 07:55:48;;;;;;;87.38;72.05;;;7.50;99.90;;;;;;5023492;28;20680;-81
2023/11/11 07:58:14;;;;;;;72.60;59.92;;;7.50;99.90;;;;;;5024280;28;20173;-81
2023/11/11 08:00:40;;;;;;;93.03;81.37;;;7.60;99.90;;;;;;5023515;28;20198;-81
2023/11/11 08:03:06;;;;;;;86.30;77.67;;;7.60;99.90;;;;;;5021431;28;20483;-81
2023/11/11 08:05:32;;;;;;;96.37;86.77;;;7.70;99.90;;;;;;5024406;28;20159;-81
2023/11/11 08:07:59;;;;;;;100.03;90.13;;;7.80;99.90;;;;;;5023874;28;20177;-80
2023/11/11 08:10:27;;;;;;;105.95;95.82;;;7.80;99.90;;;;;;5022068;28;20174;-81
2023/11/11 08:12:58;;;;;;;82.05;72.32;;;7.90;99.90;;;;;;5022668;28;20189;-81
2023/11/11 08:15:24;;;;;;;87.22;77.60;;;7.90;99.90;;;;;;5022150;28;20173;-81
2023/11/11 08:17:56;;;;;;;98.70;88.67;;;7.90;99.90;;;;;;5021031;28;20171;-81
2023/11/11 08:20:35;;;;;;;;;;;;;;;;;;;;;
2023/11/11 08:23:00;;;;;;;82.88;73.25;;;7.90;99.90;;;;;;5020763;28;20301;-81
2023/11/11 08:25:26;;;;;;;78.93;69.17;;;8.00;99.90;;;;;;5024020;28;20166;-81
2023/11/11 08:27:53;;;;;;;81.13;69.20;;;8.00;99.90;;;;;;5021475;28;20264;-81
2023/11/11 08:30:21;;;;;;;83.80;73.85;;;8.10;99.90;;;;;;5021700;28;20173;-81
2023/11/11 08:32:50;;;;;;;82.60;67.05;;;8.10;99.90;;;;;;5022280;28;20198;-81
2023/11/11 08:35:19;;;;;;;82.10;70.88;;;8.10;99.90;;;;;;5021924;28;20230;-81
2023/11/11 08:37:50;;;;;;;95.60;85.18;;;8.10;99.90;;;;;;5020955;28;20158;-81
2023/11/11 08:40:17;;;;;;;77.97;64.28;;;8.10;99.90;;;;;;5022510;28;20226;-81
2023/11/11 08:42:43;;;;;;;80.55;71.55;;;8.20;99.90;;;;;;5023008;28;20240;-80
2023/11/11 08:45:13;;;;;;;72.90;59.83;;;8.20;99.90;;;;;;5022522;28;20171;-81
2023/11/11 08:47:39;;;;;;;79.35;67.70;;;8.20;99.90;;;;;;5023787;28;20170;-81
2023/11/11 08:50:07;;;;;;;88.38;74.45;;;8.30;99.90;;;;;;5023767;28;20159;-81
2023/11/11 08:52:33;;;;;;;84.88;73.75;;;8.30;99.90;;;;;;5023541;28;20190;-81
2023/11/11 08:55:02;;;;;;;82.93;74.13;;;8.40;99.90;;;;;;5021360;28;20194;-80
2023/11/11 08:57:28;;;;;;;74.28;60.63;;;8.40;99.90;;;;;;5026696;28;20162;-80
2023/11/11 08:59:54;;;;;;;73.40;61.63;;;8.50;99.90;;;;;;5024309;28;20180;-80
2023/11/11 09:02:20;;;;;;;76.07;64.07;;;8.40;99.90;;;;;;5027381;28;20205;-81
2023/11/11 09:04:46;;;;;;;80.27;67.03;;;8.40;99.90;;;;;;5027113;28;20189;-80
2023/11/11 09:07:12;;;;;;;76.43;58.50;;;8.50;99.90;;;;;;5026989;28;20205;-80
2023/11/11 09:09:45;;;;;;;76.17;62.40;;;8.60;99.90;;;;;;5026965;28;20528;-80
2023/11/11 09:12:14;;;;;;;72.28;59.70;;;8.60;99.90;;;;;;5025104;28;20171;-80
2023/11/11 09:14:43;;;;;;;76.55;65.60;;;8.60;99.90;;;;;;5027523;28;20217;-80
2023/11/11 09:17:12;;;;;;;75.20;61.10;;;8.70;99.90;;;;;;5023614;28;20250;-80
2023/11/11 09:19:40;;;;;;;71.47;56.05;;;8.70;99.90;;;;;;5024697;28;20163;-80
2023/11/11 09:22:06;;;;;;;73.82;55.97;;;8.80;99.90;;;;;;5023541;28;20225;-80
2023/11/11 09:24:32;;;;;;;72.53;61.63;;;8.70;99.90;;;;;;5021647;28;20734;-80
2023/11/11 09:26:59;;;;;;;75.90;59.00;;;8.70;99.90;;;;;;5026696;28;20401;-80
2023/11/11 09:29:27;;;;;;;75.72;63.13;;;8.70;99.90;;;;;;5026988;28;20176;-80
2023/11/11 09:31:53;;;;;;;76.38;65.10;;;8.80;99.90;;;;;;5026664;28;20537;-80
2023/11/11 09:34:23;;;;;;;71.07;58.67;;;8.80;99.90;;;;;;5025545;28;20201;-80
2023/11/11 09:37:21;;;;;;;79.68;67.55;;;8.80;99.90;;;;;;5025988;28;20389;-80
2023/11/11 09:39:50;;;;;;;73.13;56.47;;;8.80;99.90;;;;;;5015100;28;20190;-80
2023/11/11 09:42:16;;;;;;;67.47;55.50;;;8.80;99.90;;;;;;5024948;28;20262;-80
2023/11/11 09:44:41;;;;;;;71.43;58.60;;;8.90;99.90;;;;;;5106357;22;20253;-79
2023/11/11 09:47:12;;;;;;;71.53;51.27;;;8.90;99.90;;;;;;5029486;28;20212;-80
2023/11/11 09:49:46;;;;;;;70.50;53.45;;;9.00;99.90;;;;;;5046471;28;20146;-80
2023/11/11 09:52:14;;;;;;;70.57;46.42;;;9.10;99.90;;;;;;5048442;28;20165;-80
2023/11/11 09:54:48;;;;;;;68.53;51.05;;;9.10;99.90;;;;;;5031356;28;20279;-80
2023/11/11 09:57:15;;;;;;;64.65;39.55;;;9.10;99.90;;;;;;5048818;28;20146;-81
2023/11/11 10:06:01;;;;;;;67.25;50.63;;;9.00;99.90;;;;;;6177991;22;20209;-81
2023/11/11 10:08:28;;;;;;;73.85;57.67;;;8.90;99.90;;;;;;5046453;28;20150;-79
2023/11/11 10:11:05;;;;;;;63.65;40.17;;;8.90;99.90;;;;;;5030396;28;20166;-81
2023/11/11 10:14:10;;;;;;;65.97;39.63;;;8.90;99.90;;;;;;5115837;22;20240;-82
2023/11/11 10:17:04;;;;;;;;;;;;;;;;;;;;;
2023/11/11 10:19:56;;;;;;;62.40;36.60;;;9.10;99.90;;;;;;5041225;28;20261;-82
2023/11/11 10:22:46;;;;;;;61.42;39.00;;;9.20;99.90;;;;;;5047793;28;20185;-81
2023/11/11 10:25:17;;;;;;;63.60;38.97;;;9.20;99.90;;;;;;5029094;28;20178;-81
2023/11/11 10:27:54;;;;;;;60.63;38.80;;;9.20;99.90;;;;;;5030222;28;20215;-81
2023/11/11 10:30:28;;;;;;;65.43;46.38;;;9.30;99.90;;;;;;5028895;28;20690;-81
2023/11/11 10:33:04;;;;;;;64.22;43.25;;;9.30;99.90;;;;;;5061087;23;20274;-82
2023/11/11 10:35:43;;;;;;;64.03;44.75;;;9.30;99.90;;;;;;5025825;28;20204;-80
2023/11/11 10:38:38;;;;;;;;;;;;;;;;;;;;;
2023/11/11 10:41:14;;;;;;;59.90;33.92;;;9.30;99.90;;;;;;5028850;28;20190;-79
2023/11/11 10:43:50;;;;;;;55.40;26.77;;;9.40;99.90;;;;;;5073308;22;20217;-79
2023/11/11 10:46:16;;;;;;;59.13;33.10;;;9.40;99.90;;;;;;5026316;28;20258;-79
2023/11/11 10:48:44;;;;;;;55.87;33.57;;;9.50;99.90;;;;;;5027302;28;20186;-80
2023/11/11 10:51:25;;;;;;;;;;;;;;;;;;;;;
2023/11/11 10:53:51;;;;;;;62.85;40.25;;;9.50;99.90;;;;;;5028626;28;20225;-80
2023/11/11 10:56:27;;;;;;;61.00;44.17;;;9.60;99.90;;;;;;5027973;28;20171;-79
2023/11/11 10:58:55;;;;;;;59.33;33.40;;;9.70;99.90;;;;;;5026550;28;20508;-81
2023/11/11 11:01:21;;;;;;;58.65;32.38;;;9.80;99.90;;;;;;5026307;28;20171;-80
2023/11/11 11:03:48;;;;;;;63.55;40.13;;;9.90;99.90;;;;;;5036169;22;20220;-80
2023/11/11 11:06:31;;;;;;;64.10;34.72;;;9.90;99.90;;;;;;5027284;28;20166;-79
2023/11/11 11:09:14;;;;;;;60.97;35.40;;;9.90;99.90;;;;;;5030519;28;20166;-80
2023/11/11 11:11:59;;;;;;;67.28;34.35;;;10.00;99.90;;;;;;5029062;28;20204;-79
2023/11/11 11:14:39;;;;;;;56.58;23.23;;;10.10;99.90;;;;;;5046968;28;20185;-79
2023/11/11 11:17:08;;;;;;;57.65;25.58;;;10.10;99.90;;;;;;5047771;28;20173;-80
2023/11/11 11:19:54;;;;;;;54.63;23.38;;;10.00;99.90;;;;;;5046692;28;20165;-79
2023/11/11 11:22:24;;;;;;;54.13;25.02;;;9.90;99.90;;;;;;5030611;28;20209;-80
2023/11/11 11:24:50;;;;;;;53.05;23.15;;;9.90;99.90;;;;;;5030595;28;20551;-79
2023/11/11 11:27:16;;;;;;;56.20;27.17;;;9.80;99.90;;;;;;5048806;28;20177;-80
2023/11/11 11:29:42;;;;;;;52.00;26.53;;;9.70;99.90;;;;;;5029130;28;20832;-79
2023/11/11 11:32:12;;;;;;;52.95;23.42;;;9.60;99.90;;;;;;5028624;28;20185;-79
2023/11/11 11:34:43;;;;;;;52.30;22.15;;;9.60;99.90;;;;;;5047950;28;20186;-80
2023/11/11 11:37:17;;;;;;;55.38;22.02;;;9.50;99.90;;;;;;5030136;28;20162;-80
2023/11/11 11:40:08;;;;;;;50.38;20.95;;;9.60;99.90;;;;;;5047224;28;20170;-79
2023/11/11 11:42:38;;;;;;;49.38;16.67;;;9.60;99.90;;;;;;5047379;28;20202;-80
2023/11/11 11:45:06;;;;;;;50.97;20.23;;;9.60;99.90;;;;;;5013812;28;20166;-80
2023/11/11 11:47:33;;;;;;;51.03;21.17;;;9.60;99.90;;;;;;5048803;28;20161;-80
2023/11/11 11:50:04;;;;;;;57.40;26.35;;;9.50;99.90;;;;;;5031628;28;20170;-79
2023/11/11 11:52:30;;;;;;;55.85;25.73;;;9.60;99.90;;;;;;5031312;28;20173;-80
2023/11/11 11:55:01;;;;;;;58.33;21.88;;;9.60;99.90;;;;;;5031079;28;20194;-80
2023/11/11 11:57:30;;;;;;;58.70;20.77;;;9.60;99.90;;;;;;5028609;28;20166;-80
2023/11/11 12:00:16;;;;;;;54.35;21.15;;;9.60;99.90;;;;;;5032527;28;20237;-80
2023/11/11 12:02:42;;;;;;;61.25;19.52;;;9.60;99.90;;;;;;5030638;28;20265;-79
2023/11/11 12:05:08;;;;;;;53.20;20.85;;;9.60;99.90;;;;;;5030750;28;20177;-80
2023/11/11 12:07:38;;;;;;;56.70;23.90;;;9.70;99.90;;;;;;5045024;28;20166;-80
2023/11/11 12:10:11;;;;;;;52.17;20.92;;;9.70;99.90;;;;;;5028252;28;20173;-81
2023/11/11 12:12:40;;;;;;;49.35;18.05;;;9.80;99.90;;;;;;5029618;28;20166;-79
2023/11/11 12:15:13;;;;;;;49.88;14.95;;;9.80;99.90;;;;;;5048728;28;20166;-79
2023/11/11 12:17:46;;;;;;;48.22;15.07;;;9.90;99.90;;;;;;5046872;28;20162;-79
2023/11/11 12:20:13;;;;;;;51.53;18.05;;;9.90;99.90;;;;;;5030220;28;20162;-79
2023/11/11 12:22:47;;;;;;;55.75;17.85;;;10.00;99.90;;;;;;5030159;28;20567;-79
2023/11/11 12:25:14;;;;;;;49.80;16.92;;;10.10;99.90;;;;;;5050779;28;20180;-79
2023/11/11 12:27:44;;;;;;;51.05;19.65;;;10.10;99.90;;;;;;5035388;28;20170;-79
2023/11/11 12:30:20;;;;;;;50.10;17.00;;;10.10;99.90;;;;;;5035675;28;20170;-79
2023/11/11 12:33:11;;;;;;;48.33;15.30;;;10.10;99.90;;;;;;5053695;28;20153;-79
2023/11/11 12:35:49;;;;;;;52.70;17.60;;;10.00;99.90;;;;;;5053706;28;20173;-79
2023/11/11 12:38:27;;;;;;;51.95;19.13;;;10.10;99.90;;;;;;5052924;28;20630;-79
2023/11/11 12:40:55;;;;;;;53.53;21.13;;;10.10;99.90;;;;;;5053326;28;20196;-79
2023/11/11 12:43:26;;;;;;;56.15;26.10;;;10.20;99.90;;;;;;5053870;28;20625;-79
2023/11/11 12:45:54;;;;;;;52.33;25.17;;;10.20;99.90;;;;;;5051753;28;20292;-79
2023/11/11 12:48:22;;;;;;;49.45;19.75;;;10.10;99.90;;;;;;5033596;28;20252;-79
2023/11/11 12:50:48;;;;;;;52.88;21.33;;;10.00;99.90;;;;;;5035641;28;20177;-79